sensor_id;sensor_type;location;lat;lon;timestamp;P1;durP1;ratioP1;P2;durP2;ratioP2
67026;SDS011;53933;52.142;11.738;2022-09-17T00:02:21;7.85;;;2.25;;
67026;SDS011;53933;52.142;11.738;2022-09-17T00:04:49;6.38;;;2.10;;
67026;SDS011;53933;52.142;11.738;2022-09-17T00:07:16;8.95;;;2.90;;
67026;SDS011;53933;52.142;11.738;2022-09-17T00:09:43;23.45;;;3.55;;
67026;SDS011;53933;52.142;11.738;2022-09-17T00:12:09;15.98;;;3.03;;
67026;SDS011;53933;52.142;11.738;2022-09-17T00:14:36;12.40;;;2.53;;
67026;SDS011;53933;52.142;11.738;2022-09-17T00:17:04;15.02;;;2.67;;
67026;SDS011;53933;52.142;11.738;2022-09-17T00:19:31;16.25;;;2.45;;
67026;SDS011;53933;52.142;11.738;2022-09-17T00:21:57;7.28;;;2.80;;
67026;SDS011;53933;52.142;11.738;2022-09-17T00:24:24;6.82;;;2.30;;
67026;SDS011;53933;52.142;11.738;2022-09-17T00:26:50;10.73;;;2.10;;
67026;SDS011;53933;52.142;11.738;2022-09-17T00:29:17;10.27;;;2.40;;
67026;SDS011;53933;52.142;11.738;2022-09-17T00:31:44;9.27;;;2.30;;
67026;SDS011;53933;52.142;11.738;2022-09-17T00:34:12;5.50;;;1.58;;
67026;SDS011;53933;52.142;11.738;2022-09-17T00:36:38;11.38;;;2.13;;
67026;SDS011;53933;52.142;11.738;2022-09-17T00:39:06;6.00;;;1.90;;
67026;SDS011;53933;52.142;11.738;2022-09-17T00:41:34;13.25;;;2.60;;
67026;SDS011;53933;52.142;11.738;2022-09-17T00:47:02;8.98;;;2.05;;
67026;SDS011;53933;52.142;11.738;2022-09-17T00:49:30;11.48;;;2.90;;
67026;SDS011;53933;52.142;11.738;2022-09-17T00:51:58;7.75;;;2.00;;
67026;SDS011;53933;52.142;11.738;2022-09-17T00:54:29;21.25;;;2.97;;
67026;SDS011;53933;52.142;11.738;2022-09-17T00:56:57;4.35;;;2.05;;
67026;SDS011;53933;52.142;11.738;2022-09-17T00:59:24;8.23;;;2.03;;
67026;SDS011;53933;52.142;11.738;2022-09-17T01:01:51;6.05;;;1.65;;
67026;SDS011;53933;52.142;11.738;2022-09-17T01:04:19;9.07;;;1.88;;
67026;SDS011;53933;52.142;11.738;2022-09-17T01:06:49;15.02;;;2.53;;
67026;SDS011;53933;52.142;11.738;2022-09-17T01:09:26;7.30;;;2.13;;
67026;SDS011;53933;52.142;11.738;2022-09-17T01:12:07;6.38;;;1.92;;
67026;SDS011;53933;52.142;11.738;2022-09-17T01:14:47;5.60;;;2.22;;
67026;SDS011;53933;52.142;11.738;2022-09-17T01:17:25;7.32;;;1.42;;
67026;SDS011;53933;52.142;11.738;2022-09-17T01:20:06;7.70;;;2.00;;
67026;SDS011;53933;52.142;11.738;2022-09-17T01:22:58;8.10;;;2.13;;
67026;SDS011;53933;52.142;11.738;2022-09-17T01:25:43;9.07;;;1.50;;
67026;SDS011;53933;52.142;11.738;2022-09-17T01:28:24;11.38;;;1.73;;
67026;SDS011;53933;52.142;11.738;2022-09-17T01:31:06;6.65;;;1.92;;
67026;SDS011;53933;52.142;11.738;2022-09-17T01:33:49;9.05;;;1.52;;
67026;SDS011;53933;52.142;11.738;2022-09-17T01:36:24;4.65;;;1.48;;
67026;SDS011;53933;52.142;11.738;2022-09-17T01:39:00;4.47;;;1.40;;
67026;SDS011;53933;52.142;11.738;2022-09-17T01:41:33;12.60;;;1.85;;
67026;SDS011;53933;52.142;11.738;2022-09-17T01:44:06;7.43;;;1.40;;
67026;SDS011;53933;52.142;11.738;2022-09-17T01:46:42;3.45;;;1.27;;
67026;SDS011;53933;52.142;11.738;2022-09-17T01:49:11;4.32;;;1.02;;
67026;SDS011;53933;52.142;11.738;2022-09-17T01:51:42;3.83;;;0.95;;
67026;SDS011;53933;52.142;11.738;2022-09-17T01:54:13;2.13;;;0.98;;
67026;SDS011;53933;52.142;11.738;2022-09-17T01:56:45;3.55;;;1.17;;
67026;SDS011;53933;52.142;11.738;2022-09-17T01:59:17;10.57;;;1.33;;
67026;SDS011;53933;52.142;11.738;2022-09-17T02:01:49;9.88;;;1.23;;
67026;SDS011;53933;52.142;11.738;2022-09-17T02:04:21;5.50;;;1.15;;
67026;SDS011;53933;52.142;11.738;2022-09-17T02:06:52;6.53;;;1.27;;
67026;SDS011;53933;52.142;11.738;2022-09-17T02:09:26;4.80;;;1.10;;
67026;SDS011;53933;52.142;11.738;2022-09-17T02:11:56;3.70;;;0.80;;
67026;SDS011;53933;52.142;11.738;2022-09-17T02:14:28;4.72;;;1.50;;
67026;SDS011;53933;52.142;11.738;2022-09-17T02:17:04;10.80;;;1.63;;
67026;SDS011;53933;52.142;11.738;2022-09-17T02:19:36;7.88;;;1.20;;
67026;SDS011;53933;52.142;11.738;2022-09-17T02:22:05;19.85;;;1.15;;
67026;SDS011;53933;52.142;11.738;2022-09-17T02:24:41;5.18;;;1.23;;
67026;SDS011;53933;52.142;11.738;2022-09-17T02:27:14;3.10;;;1.13;;
67026;SDS011;53933;52.142;11.738;2022-09-17T02:29:46;10.70;;;1.40;;
67026;SDS011;53933;52.142;11.738;2022-09-17T02:32:14;5.93;;;1.20;;
67026;SDS011;53933;52.142;11.738;2022-09-17T02:34:40;6.28;;;1.10;;
67026;SDS011;53933;52.142;11.738;2022-09-17T02:37:07;3.15;;;1.20;;
67026;SDS011;53933;52.142;11.738;2022-09-17T02:39:34;7.95;;;1.13;;
67026;SDS011;53933;52.142;11.738;2022-09-17T02:42:02;5.65;;;0.80;;
67026;SDS011;53933;52.142;11.738;2022-09-17T02:44:41;7.30;;;1.30;;
67026;SDS011;53933;52.142;11.738;2022-09-17T02:47:26;2.22;;;0.98;;
67026;SDS011;53933;52.142;11.738;2022-09-17T02:50:05;2.60;;;1.05;;
67026;SDS011;53933;52.142;11.738;2022-09-17T02:52:47;3.25;;;0.90;;
67026;SDS011;53933;52.142;11.738;2022-09-17T02:55:23;2.63;;;0.90;;
67026;SDS011;53933;52.142;11.738;2022-09-17T02:57:57;6.18;;;1.42;;
67026;SDS011;53933;52.142;11.738;2022-09-17T03:00:30;3.53;;;1.08;;
67026;SDS011;53933;52.142;11.738;2022-09-17T03:02:59;2.53;;;0.93;;
67026;SDS011;53933;52.142;11.738;2022-09-17T03:05:31;6.65;;;1.38;;
67026;SDS011;53933;52.142;11.738;2022-09-17T03:07:59;6.38;;;1.63;;
67026;SDS011;53933;52.142;11.738;2022-09-17T03:10:26;6.32;;;0.95;;
67026;SDS011;53933;52.142;11.738;2022-09-17T03:12:56;5.18;;;1.15;;
67026;SDS011;53933;52.142;11.738;2022-09-17T03:15:23;7.25;;;1.20;;
67026;SDS011;53933;52.142;11.738;2022-09-17T03:17:50;2.58;;;1.00;;
67026;SDS011;53933;52.142;11.738;2022-09-17T03:20:18;2.65;;;1.00;;
67026;SDS011;53933;52.142;11.738;2022-09-17T03:22:44;2.08;;;1.10;;
67026;SDS011;53933;52.142;11.738;2022-09-17T03:25:11;3.63;;;1.13;;
67026;SDS011;53933;52.142;11.738;2022-09-17T03:27:38;3.25;;;1.33;;
67026;SDS011;53933;52.142;11.738;2022-09-17T03:30:05;3.00;;;1.13;;
67026;SDS011;53933;52.142;11.738;2022-09-17T03:32:32;2.70;;;0.93;;
67026;SDS011;53933;52.142;11.738;2022-09-17T03:34:58;4.53;;;1.27;;
67026;SDS011;53933;52.142;11.738;2022-09-17T03:37:26;3.28;;;1.25;;
67026;SDS011;53933;52.142;11.738;2022-09-17T03:39:53;2.85;;;1.00;;
67026;SDS011;53933;52.142;11.738;2022-09-17T03:42:20;4.70;;;1.23;;
67026;SDS011;53933;52.142;11.738;2022-09-17T03:44:46;1.58;;;0.90;;
67026;SDS011;53933;52.142;11.738;2022-09-17T03:47:13;4.10;;;1.27;;
67026;SDS011;53933;52.142;11.738;2022-09-17T03:49:40;2.35;;;0.98;;
67026;SDS011;53933;52.142;11.738;2022-09-17T03:52:07;3.88;;;1.10;;
67026;SDS011;53933;52.142;11.738;2022-09-17T03:54:35;2.53;;;1.00;;
67026;SDS011;53933;52.142;11.738;2022-09-17T03:57:01;6.30;;;1.15;;
67026;SDS011;53933;52.142;11.738;2022-09-17T03:59:28;2.63;;;1.00;;
67026;SDS011;53933;52.142;11.738;2022-09-17T04:01:55;4.43;;;1.33;;
67026;SDS011;53933;52.142;11.738;2022-09-17T04:04:22;3.78;;;1.35;;
67026;SDS011;53933;52.142;11.738;2022-09-17T04:06:48;2.28;;;0.90;;
67026;SDS011;53933;52.142;11.738;2022-09-17T04:09:15;3.22;;;1.13;;
67026;SDS011;53933;52.142;11.738;2022-09-17T04:11:43;4.00;;;1.10;;
67026;SDS011;53933;52.142;11.738;2022-09-17T04:14:09;2.97;;;1.20;;
67026;SDS011;53933;52.142;11.738;2022-09-17T04:16:36;3.90;;;1.10;;
67026;SDS011;53933;52.142;11.738;2022-09-17T04:19:02;4.38;;;0.82;;
67026;SDS011;53933;52.142;11.738;2022-09-17T04:21:29;2.15;;;1.27;;
67026;SDS011;53933;52.142;11.738;2022-09-17T04:23:55;3.25;;;1.20;;
67026;SDS011;53933;52.142;11.738;2022-09-17T04:26:22;4.97;;;1.23;;
67026;SDS011;53933;52.142;11.738;2022-09-17T04:28:50;14.55;;;1.85;;
67026;SDS011;53933;52.142;11.738;2022-09-17T04:31:17;13.98;;;1.80;;
67026;SDS011;53933;52.142;11.738;2022-09-17T04:33:43;7.85;;;1.90;;
67026;SDS011;53933;52.142;11.738;2022-09-17T04:36:10;8.98;;;1.92;;
67026;SDS011;53933;52.142;11.738;2022-09-17T04:38:36;3.83;;;1.23;;
67026;SDS011;53933;52.142;11.738;2022-09-17T04:41:05;9.25;;;1.77;;
67026;SDS011;53933;52.142;11.738;2022-09-17T04:43:31;7.78;;;2.00;;
67026;SDS011;53933;52.142;11.738;2022-09-17T04:45:59;11.73;;;2.20;;
67026;SDS011;53933;52.142;11.738;2022-09-17T04:48:26;7.25;;;1.58;;
67026;SDS011;53933;52.142;11.738;2022-09-17T04:50:53;6.18;;;1.73;;
67026;SDS011;53933;52.142;11.738;2022-09-17T04:53:19;6.90;;;1.30;;
67026;SDS011;53933;52.142;11.738;2022-09-17T04:55:46;7.25;;;1.73;;
67026;SDS011;53933;52.142;11.738;2022-09-17T04:58:12;4.45;;;1.30;;
67026;SDS011;53933;52.142;11.738;2022-09-17T05:00:39;5.15;;;1.77;;
67026;SDS011;53933;52.142;11.738;2022-09-17T05:03:08;5.47;;;1.65;;
67026;SDS011;53933;52.142;11.738;2022-09-17T05:05:34;5.93;;;1.40;;
67026;SDS011;53933;52.142;11.738;2022-09-17T05:08:01;8.80;;;1.67;;
67026;SDS011;53933;52.142;11.738;2022-09-17T05:10:28;5.88;;;1.35;;
67026;SDS011;53933;52.142;11.738;2022-09-17T05:12:55;4.78;;;1.50;;
67026;SDS011;53933;52.142;11.738;2022-09-17T05:15:22;5.13;;;1.52;;
67026;SDS011;53933;52.142;11.738;2022-09-17T05:17:50;5.47;;;1.33;;
67026;SDS011;53933;52.142;11.738;2022-09-17T05:20:18;5.18;;;1.50;;
67026;SDS011;53933;52.142;11.738;2022-09-17T05:22:46;3.72;;;1.30;;
67026;SDS011;53933;52.142;11.738;2022-09-17T05:25:15;4.97;;;1.60;;
67026;SDS011;53933;52.142;11.738;2022-09-17T05:27:43;8.27;;;1.85;;
67026;SDS011;53933;52.142;11.738;2022-09-17T05:30:11;6.55;;;1.50;;
67026;SDS011;53933;52.142;11.738;2022-09-17T05:32:38;13.15;;;1.90;;
67026;SDS011;53933;52.142;11.738;2022-09-17T05:35:05;13.30;;;2.30;;
67026;SDS011;53933;52.142;11.738;2022-09-17T05:37:34;12.30;;;2.35;;
67026;SDS011;53933;52.142;11.738;2022-09-17T05:40:01;14.55;;;2.17;;
67026;SDS011;53933;52.142;11.738;2022-09-17T05:42:28;9.50;;;1.45;;
67026;SDS011;53933;52.142;11.738;2022-09-17T05:44:55;21.80;;;2.50;;
67026;SDS011;53933;52.142;11.738;2022-09-17T05:47:21;10.07;;;2.10;;
67026;SDS011;53933;52.142;11.738;2022-09-17T05:49:48;19.98;;;1.92;;
67026;SDS011;53933;52.142;11.738;2022-09-17T05:52:14;15.98;;;2.83;;
67026;SDS011;53933;52.142;11.738;2022-09-17T05:54:42;16.10;;;3.20;;
67026;SDS011;53933;52.142;11.738;2022-09-17T05:57:09;6.72;;;1.95;;
67026;SDS011;53933;52.142;11.738;2022-09-17T05:59:36;19.20;;;2.63;;
67026;SDS011;53933;52.142;11.738;2022-09-17T06:02:02;13.70;;;2.13;;
67026;SDS011;53933;52.142;11.738;2022-09-17T06:04:30;12.13;;;2.70;;
67026;SDS011;53933;52.142;11.738;2022-09-17T06:06:56;9.75;;;1.90;;
67026;SDS011;53933;52.142;11.738;2022-09-17T06:09:23;7.35;;;1.73;;
67026;SDS011;53933;52.142;11.738;2022-09-17T06:11:52;10.57;;;1.83;;
67026;SDS011;53933;52.142;11.738;2022-09-17T06:14:18;11.40;;;1.80;;
67026;SDS011;53933;52.142;11.738;2022-09-17T06:16:45;8.13;;;2.00;;
67026;SDS011;53933;52.142;11.738;2022-09-17T06:19:11;10.43;;;2.47;;
67026;SDS011;53933;52.142;11.738;2022-09-17T06:21:38;12.93;;;2.50;;
67026;SDS011;53933;52.142;11.738;2022-09-17T06:24:04;7.93;;;1.77;;
67026;SDS011;53933;52.142;11.738;2022-09-17T06:26:31;11.38;;;2.38;;
67026;SDS011;53933;52.142;11.738;2022-09-17T06:28:59;9.30;;;1.83;;
67026;SDS011;53933;52.142;11.738;2022-09-17T06:31:26;10.27;;;1.70;;
67026;SDS011;53933;52.142;11.738;2022-09-17T06:33:52;7.05;;;1.95;;
67026;SDS011;53933;52.142;11.738;2022-09-17T06:36:21;12.05;;;2.50;;
67026;SDS011;53933;52.142;11.738;2022-09-17T06:38:47;8.25;;;1.88;;
67026;SDS011;53933;52.142;11.738;2022-09-17T06:41:14;4.97;;;2.13;;
67026;SDS011;53933;52.142;11.738;2022-09-17T06:43:42;12.40;;;2.05;;
67026;SDS011;53933;52.142;11.738;2022-09-17T06:46:10;11.00;;;2.00;;
67026;SDS011;53933;52.142;11.738;2022-09-17T06:48:37;7.63;;;1.92;;
67026;SDS011;53933;52.142;11.738;2022-09-17T06:51:04;10.07;;;1.92;;
67026;SDS011;53933;52.142;11.738;2022-09-17T06:53:32;12.35;;;2.17;;
67026;SDS011;53933;52.142;11.738;2022-09-17T06:56:00;7.90;;;1.95;;
67026;SDS011;53933;52.142;11.738;2022-09-17T06:58:28;6.45;;;1.67;;
67026;SDS011;53933;52.142;11.738;2022-09-17T07:00:56;9.40;;;2.28;;
67026;SDS011;53933;52.142;11.738;2022-09-17T07:03:25;8.82;;;2.05;;
67026;SDS011;53933;52.142;11.738;2022-09-17T07:05:52;6.53;;;2.00;;
67026;SDS011;53933;52.142;11.738;2022-09-17T07:08:19;8.98;;;2.25;;
67026;SDS011;53933;52.142;11.738;2022-09-17T07:10:46;10.10;;;2.00;;
67026;SDS011;53933;52.142;11.738;2022-09-17T07:13:12;9.15;;;1.60;;
67026;SDS011;53933;52.142;11.738;2022-09-17T07:15:39;23.45;;;3.47;;
67026;SDS011;53933;52.142;11.738;2022-09-17T07:18:09;18.63;;;2.75;;
67026;SDS011;53933;52.142;11.738;2022-09-17T07:20:37;12.57;;;2.28;;
67026;SDS011;53933;52.142;11.738;2022-09-17T07:23:04;14.38;;;2.22;;
67026;SDS011;53933;52.142;11.738;2022-09-17T07:25:31;13.18;;;2.40;;
67026;SDS011;53933;52.142;11.738;2022-09-17T07:27:57;9.05;;;1.95;;
67026;SDS011;53933;52.142;11.738;2022-09-17T07:30:24;4.72;;;1.73;;
67026;SDS011;53933;52.142;11.738;2022-09-17T07:32:51;13.85;;;2.05;;
67026;SDS011;53933;52.142;11.738;2022-09-17T07:35:18;14.02;;;2.30;;
67026;SDS011;53933;52.142;11.738;2022-09-17T07:37:46;28.77;;;2.53;;
67026;SDS011;53933;52.142;11.738;2022-09-17T07:40:12;18.13;;;2.10;;
67026;SDS011;53933;52.142;11.738;2022-09-17T07:42:39;12.98;;;2.17;;
67026;SDS011;53933;52.142;11.738;2022-09-17T07:45:06;12.43;;;2.25;;
67026;SDS011;53933;52.142;11.738;2022-09-17T07:47:36;6.38;;;1.30;;
67026;SDS011;53933;52.142;11.738;2022-09-17T07:50:04;22.33;;;1.75;;
67026;SDS011;53933;52.142;11.738;2022-09-17T07:52:31;13.55;;;1.90;;
67026;SDS011;53933;52.142;11.738;2022-09-17T07:54:59;12.18;;;2.25;;
67026;SDS011;53933;52.142;11.738;2022-09-17T07:57:26;7.78;;;2.17;;
67026;SDS011;53933;52.142;11.738;2022-09-17T07:59:52;7.72;;;1.52;;
67026;SDS011;53933;52.142;11.738;2022-09-17T08:02:19;5.55;;;1.50;;
67026;SDS011;53933;52.142;11.738;2022-09-17T08:04:46;9.13;;;1.70;;
67026;SDS011;53933;52.142;11.738;2022-09-17T08:07:13;5.35;;;1.90;;
67026;SDS011;53933;52.142;11.738;2022-09-17T08:09:39;8.30;;;2.03;;
67026;SDS011;53933;52.142;11.738;2022-09-17T08:12:07;16.45;;;1.90;;
67026;SDS011;53933;52.142;11.738;2022-09-17T08:14:34;5.40;;;2.15;;
67026;SDS011;53933;52.142;11.738;2022-09-17T08:17:00;6.03;;;1.50;;
67026;SDS011;53933;52.142;11.738;2022-09-17T08:19:29;5.32;;;1.83;;
67026;SDS011;53933;52.142;11.738;2022-09-17T08:21:56;3.65;;;1.25;;
67026;SDS011;53933;52.142;11.738;2022-09-17T08:24:23;5.82;;;1.42;;
67026;SDS011;53933;52.142;11.738;2022-09-17T08:26:49;6.70;;;1.60;;
67026;SDS011;53933;52.142;11.738;2022-09-17T08:29:18;4.53;;;1.45;;
67026;SDS011;53933;52.142;11.738;2022-09-17T08:31:44;5.35;;;1.75;;
67026;SDS011;53933;52.142;11.738;2022-09-17T08:34:11;9.88;;;2.30;;
67026;SDS011;53933;52.142;11.738;2022-09-17T08:36:38;7.28;;;1.63;;
67026;SDS011;53933;52.142;11.738;2022-09-17T08:39:05;5.53;;;1.70;;
67026;SDS011;53933;52.142;11.738;2022-09-17T08:41:34;10.38;;;2.47;;
67026;SDS011;53933;52.142;11.738;2022-09-17T08:44:19;7.05;;;2.40;;
67026;SDS011;53933;52.142;11.738;2022-09-17T08:46:50;5.68;;;1.77;;
67026;SDS011;53933;52.142;11.738;2022-09-17T08:49:22;6.65;;;2.17;;
67026;SDS011;53933;52.142;11.738;2022-09-17T08:51:57;7.45;;;1.85;;
67026;SDS011;53933;52.142;11.738;2022-09-17T08:54:52;5.30;;;1.83;;
67026;SDS011;53933;52.142;11.738;2022-09-17T08:57:25;8.07;;;2.15;;
67026;SDS011;53933;52.142;11.738;2022-09-17T08:59:59;8.48;;;1.67;;
67026;SDS011;53933;52.142;11.738;2022-09-17T09:02:36;7.38;;;2.00;;
67026;SDS011;53933;52.142;11.738;2022-09-17T09:05:11;7.50;;;2.20;;
67026;SDS011;53933;52.142;11.738;2022-09-17T09:07:41;13.15;;;2.22;;
67026;SDS011;53933;52.142;11.738;2022-09-17T09:10:13;11.25;;;2.30;;
67026;SDS011;53933;52.142;11.738;2022-09-17T09:12:43;6.55;;;1.60;;
67026;SDS011;53933;52.142;11.738;2022-09-17T09:15:18;6.72;;;1.88;;
67026;SDS011;53933;52.142;11.738;2022-09-17T09:17:51;4.80;;;2.00;;
67026;SDS011;53933;52.142;11.738;2022-09-17T09:20:28;7.57;;;2.20;;
67026;SDS011;53933;52.142;11.738;2022-09-17T09:23:00;6.18;;;1.88;;
67026;SDS011;53933;52.142;11.738;2022-09-17T09:25:34;6.07;;;1.90;;
67026;SDS011;53933;52.142;11.738;2022-09-17T09:28:18;11.93;;;2.10;;
67026;SDS011;53933;52.142;11.738;2022-09-17T09:31:03;5.75;;;1.52;;
67026;SDS011;53933;52.142;11.738;2022-09-17T09:33:49;6.30;;;2.10;;
67026;SDS011;53933;52.142;11.738;2022-09-17T09:36:17;5.70;;;1.90;;
67026;SDS011;53933;52.142;11.738;2022-09-17T09:38:46;4.40;;;1.50;;
67026;SDS011;53933;52.142;11.738;2022-09-17T09:41:19;5.68;;;1.38;;
67026;SDS011;53933;52.142;11.738;2022-09-17T09:43:57;5.15;;;1.70;;
67026;SDS011;53933;52.142;11.738;2022-09-17T09:46:35;5.93;;;1.42;;
67026;SDS011;53933;52.142;11.738;2022-09-17T09:49:24;2.28;;;1.05;;
67026;SDS011;53933;52.142;11.738;2022-09-17T09:52:15;6.50;;;1.63;;
67026;SDS011;53933;52.142;11.738;2022-09-17T09:54:52;4.00;;;1.52;;
67026;SDS011;53933;52.142;11.738;2022-09-17T09:57:31;4.72;;;1.40;;
67026;SDS011;53933;52.142;11.738;2022-09-17T10:00:24;5.00;;;1.90;;
67026;SDS011;53933;52.142;11.738;2022-09-17T10:02:56;5.72;;;1.50;;
67026;SDS011;53933;52.142;11.738;2022-09-17T10:05:26;3.80;;;1.58;;
67026;SDS011;53933;52.142;11.738;2022-09-17T10:07:53;7.93;;;1.63;;
67026;SDS011;53933;52.142;11.738;2022-09-17T10:10:20;4.95;;;1.58;;
67026;SDS011;53933;52.142;11.738;2022-09-17T10:12:47;4.10;;;1.73;;
67026;SDS011;53933;52.142;11.738;2022-09-17T10:15:23;5.57;;;1.65;;
67026;SDS011;53933;52.142;11.738;2022-09-17T10:20:54;3.72;;;1.88;;
67026;SDS011;53933;52.142;11.738;2022-09-17T10:23:23;4.65;;;1.45;;
67026;SDS011;53933;52.142;11.738;2022-09-17T10:25:52;5.00;;;1.45;;
67026;SDS011;53933;52.142;11.738;2022-09-17T10:28:23;6.07;;;1.60;;
67026;SDS011;53933;52.142;11.738;2022-09-17T10:30:59;5.32;;;1.42;;
67026;SDS011;53933;52.142;11.738;2022-09-17T10:33:30;5.18;;;1.52;;
67026;SDS011;53933;52.142;11.738;2022-09-17T10:35:59;8.57;;;1.90;;
67026;SDS011;53933;52.142;11.738;2022-09-17T10:38:29;7.65;;;1.70;;
67026;SDS011;53933;52.142;11.738;2022-09-17T10:41:07;7.03;;;1.80;;
67026;SDS011;53933;52.142;11.738;2022-09-17T10:43:35;4.72;;;1.67;;
67026;SDS011;53933;52.142;11.738;2022-09-17T10:46:02;6.03;;;1.80;;
67026;SDS011;53933;52.142;11.738;2022-09-17T10:48:31;5.60;;;1.70;;
67026;SDS011;53933;52.142;11.738;2022-09-17T10:51:03;6.78;;;1.73;;
67026;SDS011;53933;52.142;11.738;2022-09-17T10:53:53;6.45;;;1.50;;
67026;SDS011;53933;52.142;11.738;2022-09-17T10:56:27;3.58;;;1.60;;
67026;SDS011;53933;52.142;11.738;2022-09-17T10:58:59;7.57;;;1.95;;
67026;SDS011;53933;52.142;11.738;2022-09-17T11:01:47;4.97;;;1.92;;
67026;SDS011;53933;52.142;11.738;2022-09-17T11:04:25;11.32;;;1.60;;
67026;SDS011;53933;52.142;11.738;2022-09-17T11:07:02;4.90;;;1.63;;
67026;SDS011;53933;52.142;11.738;2022-09-17T11:09:51;4.32;;;1.50;;
67026;SDS011;53933;52.142;11.738;2022-09-17T11:12:27;7.95;;;1.77;;
67026;SDS011;53933;52.142;11.738;2022-09-17T11:15:03;4.68;;;2.00;;
67026;SDS011;53933;52.142;11.738;2022-09-17T11:17:52;8.63;;;1.92;;
67026;SDS011;53933;52.142;11.738;2022-09-17T11:20:46;5.90;;;1.58;;
67026;SDS011;53933;52.142;11.738;2022-09-17T11:23:28;7.72;;;1.58;;
67026;SDS011;53933;52.142;11.738;2022-09-17T11:26:17;5.18;;;1.73;;
67026;SDS011;53933;52.142;11.738;2022-09-17T11:28:55;6.47;;;1.90;;
67026;SDS011;53933;52.142;11.738;2022-09-17T11:31:33;6.38;;;1.42;;
67026;SDS011;53933;52.142;11.738;2022-09-17T11:34:07;7.53;;;1.98;;
67026;SDS011;53933;52.142;11.738;2022-09-17T11:36:47;5.82;;;1.38;;
67026;SDS011;53933;52.142;11.738;2022-09-17T11:39:20;5.07;;;1.40;;
67026;SDS011;53933;52.142;11.738;2022-09-17T11:41:50;5.13;;;1.90;;
67026;SDS011;53933;52.142;11.738;2022-09-17T11:44:21;9.93;;;1.63;;
67026;SDS011;53933;52.142;11.738;2022-09-17T11:46:52;9.02;;;1.80;;
67026;SDS011;53933;52.142;11.738;2022-09-17T11:49:24;5.30;;;1.50;;
67026;SDS011;53933;52.142;11.738;2022-09-17T11:51:58;7.95;;;1.52;;
67026;SDS011;53933;52.142;11.738;2022-09-17T11:54:28;11.63;;;1.88;;
67026;SDS011;53933;52.142;11.738;2022-09-17T11:57:03;11.75;;;1.83;;
67026;SDS011;53933;52.142;11.738;2022-09-17T11:59:36;8.57;;;1.25;;
67026;SDS011;53933;52.142;11.738;2022-09-17T12:02:10;5.53;;;1.63;;
67026;SDS011;53933;52.142;11.738;2022-09-17T12:04:43;6.30;;;1.30;;
67026;SDS011;53933;52.142;11.738;2022-09-17T12:07:23;7.10;;;1.40;;
67026;SDS011;53933;52.142;11.738;2022-09-17T12:09:56;7.45;;;1.75;;
67026;SDS011;53933;52.142;11.738;2022-09-17T12:12:26;6.10;;;2.00;;
67026;SDS011;53933;52.142;11.738;2022-09-17T12:14:56;5.97;;;1.80;;
67026;SDS011;53933;52.142;11.738;2022-09-17T12:17:30;4.63;;;1.88;;
67026;SDS011;53933;52.142;11.738;2022-09-17T12:20:04;5.32;;;1.48;;
67026;SDS011;53933;52.142;11.738;2022-09-17T12:22:36;2.28;;;1.38;;
67026;SDS011;53933;52.142;11.738;2022-09-17T12:25:09;5.55;;;1.60;;
67026;SDS011;53933;52.142;11.738;2022-09-17T12:27:37;7.75;;;1.88;;
67026;SDS011;53933;52.142;11.738;2022-09-17T12:30:09;5.15;;;1.50;;
67026;SDS011;53933;52.142;11.738;2022-09-17T12:32:41;7.65;;;1.65;;
67026;SDS011;53933;52.142;11.738;2022-09-17T12:35:16;11.13;;;2.13;;
67026;SDS011;53933;52.142;11.738;2022-09-17T12:37:56;6.35;;;1.63;;
67026;SDS011;53933;52.142;11.738;2022-09-17T12:40:32;5.00;;;1.60;;
67026;SDS011;53933;52.142;11.738;2022-09-17T12:46:05;9.00;;;1.88;;
67026;SDS011;53933;52.142;11.738;2022-09-17T12:51:50;5.50;;;1.95;;
67026;SDS011;53933;52.142;11.738;2022-09-17T12:54:25;7.03;;;1.55;;
67026;SDS011;53933;52.142;11.738;2022-09-17T12:57:05;5.97;;;1.65;;
67026;SDS011;53933;52.142;11.738;2022-09-17T12:59:41;5.45;;;1.70;;
67026;SDS011;53933;52.142;11.738;2022-09-17T13:02:14;4.97;;;1.30;;
67026;SDS011;53933;52.142;11.738;2022-09-17T13:04:52;5.00;;;1.25;;
67026;SDS011;53933;52.142;11.738;2022-09-17T13:07:38;5.45;;;1.40;;
67026;SDS011;53933;52.142;11.738;2022-09-17T13:10:31;6.05;;;1.65;;
67026;SDS011;53933;52.142;11.738;2022-09-17T13:13:28;4.38;;;1.85;;
67026;SDS011;53933;52.142;11.738;2022-09-17T13:16:02;7.07;;;2.15;;
67026;SDS011;53933;52.142;11.738;2022-09-17T13:21:07;3.72;;;1.30;;
67026;SDS011;53933;52.142;11.738;2022-09-17T13:23:38;10.00;;;1.70;;
67026;SDS011;53933;52.142;11.738;2022-09-17T13:26:08;3.45;;;1.10;;
67026;SDS011;53933;52.142;11.738;2022-09-17T13:28:38;8.18;;;1.52;;
67026;SDS011;53933;52.142;11.738;2022-09-17T13:31:06;4.88;;;1.52;;
67026;SDS011;53933;52.142;11.738;2022-09-17T13:33:48;4.28;;;1.90;;
67026;SDS011;53933;52.142;11.738;2022-09-17T13:42:00;5.53;;;1.63;;
67026;SDS011;53933;52.142;11.738;2022-09-17T13:44:29;5.70;;;1.55;;
67026;SDS011;53933;52.142;11.738;2022-09-17T13:47:07;3.65;;;1.73;;
67026;SDS011;53933;52.142;11.738;2022-09-17T13:49:42;5.25;;;1.15;;
67026;SDS011;53933;52.142;11.738;2022-09-17T13:52:11;4.80;;;1.13;;
67026;SDS011;53933;52.142;11.738;2022-09-17T13:54:38;6.35;;;1.45;;
67026;SDS011;53933;52.142;11.738;2022-09-17T13:57:10;4.32;;;1.70;;
67026;SDS011;53933;52.142;11.738;2022-09-17T13:59:39;3.90;;;1.65;;
67026;SDS011;53933;52.142;11.738;2022-09-17T14:08:08;6.13;;;1.60;;
67026;SDS011;53933;52.142;11.738;2022-09-17T14:10:41;4.90;;;0.93;;
67026;SDS011;53933;52.142;11.738;2022-09-17T14:13:38;3.13;;;1.20;;
67026;SDS011;53933;52.142;11.738;2022-09-17T14:16:24;5.13;;;1.65;;
67026;SDS011;53933;52.142;11.738;2022-09-17T14:19:00;5.78;;;1.52;;
67026;SDS011;53933;52.142;11.738;2022-09-17T14:21:32;5.28;;;1.30;;
67026;SDS011;53933;52.142;11.738;2022-09-17T14:24:00;4.80;;;1.23;;
67026;SDS011;53933;52.142;11.738;2022-09-17T14:26:36;6.18;;;1.70;;
67026;SDS011;53933;52.142;11.738;2022-09-17T14:29:15;5.55;;;1.30;;
67026;SDS011;53933;52.142;11.738;2022-09-17T14:31:54;6.18;;;1.63;;
67026;SDS011;53933;52.142;11.738;2022-09-17T14:34:21;7.38;;;1.70;;
67026;SDS011;53933;52.142;11.738;2022-09-17T14:36:50;6.22;;;1.30;;
67026;SDS011;53933;52.142;11.738;2022-09-17T14:39:19;6.40;;;1.42;;
67026;SDS011;53933;52.142;11.738;2022-09-17T14:41:48;1.83;;;1.13;;
67026;SDS011;53933;52.142;11.738;2022-09-17T14:44:19;6.85;;;1.40;;
67026;SDS011;53933;52.142;11.738;2022-09-17T14:46:48;6.90;;;1.58;;
67026;SDS011;53933;52.142;11.738;2022-09-17T14:49:20;5.05;;;1.25;;
67026;SDS011;53933;52.142;11.738;2022-09-17T14:51:48;3.33;;;1.52;;
67026;SDS011;53933;52.142;11.738;2022-09-17T14:54:17;6.05;;;1.80;;
67026;SDS011;53933;52.142;11.738;2022-09-17T14:56:46;3.65;;;1.33;;
67026;SDS011;53933;52.142;11.738;2022-09-17T14:59:21;4.40;;;1.20;;
67026;SDS011;53933;52.142;11.738;2022-09-17T15:01:52;4.68;;;1.20;;
67026;SDS011;53933;52.142;11.738;2022-09-17T15:04:20;6.63;;;1.50;;
67026;SDS011;53933;52.142;11.738;2022-09-17T15:06:49;1.92;;;1.00;;
67026;SDS011;53933;52.142;11.738;2022-09-17T15:09:16;4.63;;;1.50;;
67026;SDS011;53933;52.142;11.738;2022-09-17T15:11:44;3.17;;;1.30;;
67026;SDS011;53933;52.142;11.738;2022-09-17T15:14:14;4.93;;;1.13;;
67026;SDS011;53933;52.142;11.738;2022-09-17T15:16:48;4.57;;;1.10;;
67026;SDS011;53933;52.142;11.738;2022-09-17T15:19:19;3.75;;;1.42;;
67026;SDS011;53933;52.142;11.738;2022-09-17T15:21:48;5.22;;;1.75;;